createdAt,value
2023-01-17T00:02:57.856Z,100.00
2023-01-17T00:06:20.155Z,100.00
2023-01-17T00:09:41.590Z,100.00
2023-01-17T00:12:56.063Z,100.00
2023-01-17T00:15:58.810Z,100.00
2023-01-17T00:19:20.956Z,100.00
2023-01-17T00:22:44.794Z,100.00
2023-01-17T00:26:05.990Z,100.00
2023-01-17T00:29:08.958Z,100.00
2023-01-17T00:32:11.790Z,100.00
2023-01-17T00:35:15.473Z,100.00
2023-01-17T00:38:21.181Z,100.00
2023-01-17T00:41:23.824Z,100.00
2023-01-17T00:44:45.661Z,100.00
2023-01-17T00:48:07.332Z,100.00
2023-01-17T00:51:29.109Z,100.00
2023-01-17T00:54:50.731Z,100.00
2023-01-17T00:58:12.384Z,100.00
2023-01-17T01:01:34.278Z,100.00
2023-01-17T01:04:56.123Z,100.00
2023-01-17T01:08:19.557Z,100.00
2023-01-17T01:11:41.808Z,100.00
2023-01-17T01:15:03.385Z,100.00
2023-01-17T01:18:26.323Z,100.00
2023-01-17T01:21:47.934Z,100.00
2023-01-17T01:25:09.702Z,100.00
2023-01-17T01:28:32.893Z,100.00
2023-01-17T01:31:54.496Z,100.00
2023-01-17T01:34:57.134Z,100.00
2023-01-17T01:38:02.487Z,100.00
2023-01-17T01:41:05.486Z,100.00
2023-01-17T01:44:42.689Z,100.00
2023-01-17T01:47:45.493Z,100.00
2023-01-17T01:50:49.968Z,100.00
2023-01-17T01:53:55.931Z,100.00
2023-01-17T01:57:01.243Z,100.00
2023-01-17T02:00:16.577Z,100.00
2023-01-17T02:03:27.502Z,100.00
2023-01-17T02:06:36.087Z,100.00
2023-01-17T02:09:39.537Z,100.00
2023-01-17T02:12:42.600Z,100.00
2023-01-17T02:15:54.481Z,100.00
2023-01-17T02:19:25.462Z,100.00
2023-01-17T02:22:40.389Z,100.00
2023-01-17T02:26:20.486Z,100.00
2023-01-17T02:30:00.042Z,100.00
2023-01-17T02:33:21.398Z,100.00
2023-01-17T02:36:38.853Z,100.00
2023-01-17T02:40:01.470Z,100.00
2023-01-17T02:43:08.971Z,100.00
2023-01-17T02:46:11.643Z,100.00
2023-01-17T02:49:16.619Z,100.00
2023-01-17T02:52:58.528Z,100.00
2023-01-17T02:56:20.157Z,100.00
2023-01-17T02:59:54.173Z,100.00
2023-01-17T03:03:28.535Z,100.00
2023-01-17T03:06:52.703Z,100.00
2023-01-17T03:10:00.119Z,100.00
2023-01-17T03:13:03.765Z,100.00
2023-01-17T03:16:12.774Z,100.00
2023-01-17T03:19:16.172Z,100.00
2023-01-17T03:22:19.280Z,100.00
2023-01-17T03:25:22.034Z,100.00
2023-01-17T03:28:25.535Z,100.00
2023-01-17T03:31:28.609Z,100.00
2023-01-17T03:34:31.679Z,100.00
2023-01-17T03:37:34.681Z,100.00
2023-01-17T03:40:38.026Z,100.00
2023-01-17T03:43:40.893Z,100.00
2023-01-17T03:46:44.598Z,100.00
2023-01-17T03:49:47.353Z,100.00
2023-01-17T03:52:51.465Z,100.00
2023-01-17T03:55:54.176Z,100.00
2023-01-17T03:58:58.645Z,100.00
2023-01-17T04:02:01.744Z,100.00
2023-01-17T04:05:05.444Z,100.00
2023-01-17T04:08:08.263Z,100.00
2023-01-17T04:11:11.310Z,100.00
2023-01-17T04:14:14.039Z,100.00
2023-01-17T04:17:19.161Z,100.00
2023-01-17T04:20:30.991Z,100.00
2023-01-17T04:23:34.586Z,100.00
2023-01-17T04:26:37.573Z,100.00
2023-01-17T04:29:40.737Z,100.00
2023-01-17T04:32:43.382Z,100.00
2023-01-17T04:35:46.819Z,100.00
2023-01-17T04:38:49.822Z,100.00
2023-01-17T04:41:52.754Z,100.00
2023-01-17T04:44:55.781Z,100.00
2023-01-17T04:48:03.381Z,100.00
2023-01-17T04:51:06.325Z,100.00
2023-01-17T04:54:09.546Z,100.00
2023-01-17T04:57:12.335Z,100.00
2023-01-17T05:00:15.949Z,100.00
2023-01-17T05:03:22.698Z,100.00
2023-01-17T05:06:25.669Z,100.00
2023-01-17T05:09:29.015Z,100.00
2023-01-17T05:12:32.074Z,100.00
2023-01-17T05:15:36.944Z,100.00
2023-01-17T05:18:40.325Z,100.00
2023-01-17T05:21:43.133Z,100.00
2023-01-17T05:24:47.489Z,100.00
2023-01-17T05:27:50.259Z,100.00
2023-01-17T05:30:53.388Z,100.00
2023-01-17T05:33:56.064Z,100.00
2023-01-17T05:36:59.233Z,100.00
2023-01-17T05:40:02.086Z,100.00
2023-01-17T05:43:05.405Z,100.00
2023-01-17T05:46:08.658Z,100.00
2023-01-17T05:49:11.686Z,100.00
2023-01-17T05:52:14.836Z,100.00
2023-01-17T05:55:17.735Z,100.00
2023-01-17T05:58:22.180Z,100.00
2023-01-17T06:01:25.432Z,100.00
2023-01-17T06:04:29.175Z,100.00
2023-01-17T06:07:31.891Z,100.00
2023-01-17T06:10:36.043Z,100.00
2023-01-17T06:13:38.799Z,100.00
2023-01-17T06:16:41.920Z,100.00
2023-01-17T06:19:45.544Z,100.00
2023-01-17T06:22:49.039Z,100.00
2023-01-17T06:25:52.063Z,100.00
2023-01-17T06:28:55.032Z,100.00
2023-01-17T06:31:58.406Z,100.00
2023-01-17T06:35:02.699Z,100.00
2023-01-17T06:38:10.533Z,100.00
2023-01-17T06:41:13.826Z,100.00
2023-01-17T06:44:17.215Z,100.00
2023-01-17T06:47:20.375Z,100.00
2023-01-17T06:50:23.474Z,100.00
2023-01-17T06:53:26.729Z,100.00
2023-01-17T06:56:33.062Z,100.00
2023-01-17T06:59:36.348Z,100.00
2023-01-17T07:02:39.594Z,100.00
2023-01-17T07:05:42.851Z,100.00
2023-01-17T07:08:45.685Z,100.00
2023-01-17T07:11:48.903Z,100.00
2023-01-17T07:14:52.371Z,100.00
2023-01-17T07:17:55.564Z,100.00
2023-01-17T07:20:58.722Z,100.00
2023-01-17T07:24:02.897Z,100.00
2023-01-17T07:27:07.360Z,100.00
2023-01-17T07:30:11.428Z,100.00
2023-01-17T07:33:14.703Z,100.00
2023-01-17T07:36:18.200Z,100.00
2023-01-17T07:39:21.404Z,100.00
2023-01-17T07:42:24.729Z,100.00
2023-01-17T07:45:28.088Z,100.00
2023-01-17T07:48:31.468Z,100.00
2023-01-17T07:51:34.570Z,100.00
2023-01-17T07:54:38.062Z,100.00
2023-01-17T07:57:41.533Z,100.00
2023-01-17T08:00:45.163Z,100.00
2023-01-17T08:03:51.273Z,100.00
2023-01-17T08:06:55.173Z,100.00
2023-01-17T08:09:58.337Z,100.00
2023-01-17T08:13:01.232Z,100.00
2023-01-17T08:16:05.038Z,100.00
2023-01-17T08:19:10.351Z,100.00
2023-01-17T08:22:13.961Z,100.00
2023-01-17T08:25:16.780Z,100.00
2023-01-17T08:28:20.460Z,100.00
2023-01-17T08:31:24.599Z,100.00
2023-01-17T08:34:28.154Z,100.00
2023-01-17T08:37:31.004Z,100.00
2023-01-17T08:40:34.729Z,100.00
2023-01-17T08:43:37.514Z,100.00
2023-01-17T08:46:41.620Z,100.00
2023-01-17T08:49:45.211Z,100.00
2023-01-17T08:52:49.162Z,100.00
2023-01-17T08:55:58.640Z,100.00
2023-01-17T08:59:03.207Z,100.00
2023-01-17T09:02:15.080Z,100.00
2023-01-17T09:05:18.267Z,100.00
2023-01-17T09:08:21.088Z,100.00
2023-01-17T09:11:24.368Z,100.00
2023-01-17T09:14:27.644Z,100.00
2023-01-17T09:17:31.453Z,100.00
2023-01-17T09:20:34.537Z,100.00
2023-01-17T09:23:37.874Z,100.00
2023-01-17T09:26:40.963Z,100.00
2023-01-17T09:29:44.135Z,100.00
2023-01-17T09:32:53.458Z,100.00
2023-01-17T09:36:01.502Z,100.00
2023-01-17T09:39:04.558Z,100.00
2023-01-17T09:42:22.150Z,100.00
2023-01-17T09:45:25.768Z,100.00
2023-01-17T09:48:36.901Z,100.00
2023-01-17T09:51:39.848Z,100.00
2023-01-17T09:54:45.687Z,100.00
2023-01-17T09:57:57.870Z,100.00
2023-01-17T10:01:03.620Z,100.00
2023-01-17T10:04:19.198Z,100.00
2023-01-17T10:07:57.303Z,100.00
2023-01-17T10:11:03.192Z,100.00
2023-01-17T10:14:33.354Z,100.00
2023-01-17T10:18:29.519Z,100.00
2023-01-17T10:21:42.276Z,100.00
2023-01-17T10:25:13.065Z,100.00
2023-01-17T10:28:23.443Z,97.02
2023-01-17T10:31:32.140Z,94.46
2023-01-17T10:34:51.951Z,91.94
2023-01-17T10:37:56.919Z,90.22
2023-01-17T10:41:05.294Z,86.02
2023-01-17T10:44:39.524Z,86.71
2023-01-17T10:47:47.025Z,88.23
2023-01-17T10:51:20.382Z,83.94
2023-01-17T10:54:38.218Z,83.43
2023-01-17T10:57:43.371Z,83.41
2023-01-17T11:00:55.971Z,83.23
2023-01-17T11:03:59.063Z,81.75
2023-01-17T11:07:16.621Z,80.10
2023-01-17T11:10:35.699Z,82.03
2023-01-17T11:13:38.956Z,79.65
2023-01-17T11:16:42.211Z,80.07
2023-01-17T11:19:48.941Z,78.03
2023-01-17T11:23:07.060Z,76.25
2023-01-17T11:26:13.116Z,72.96
2023-01-17T11:29:30.888Z,72.34
2023-01-17T11:32:35.188Z,71.24
2023-01-17T11:35:44.619Z,70.28
2023-01-17T11:39:05.495Z,67.94
2023-01-17T11:42:35.010Z,67.17
2023-01-17T11:45:39.033Z,63.16
2023-01-17T11:48:42.180Z,62.28
2023-01-17T11:51:45.184Z,62.88
2023-01-17T11:54:48.923Z,62.99
2023-01-17T11:57:51.921Z,61.84
2023-01-17T12:01:01.060Z,61.69
2023-01-17T12:04:25.323Z,62.11
2023-01-17T12:07:47.558Z,62.21
2023-01-17T12:10:56.638Z,65.79
2023-01-17T12:14:25.604Z,68.85
2023-01-17T12:18:02.171Z,67.01
2023-01-17T12:21:23.613Z,68.09
2023-01-17T12:24:57.134Z,68.10
2023-01-17T12:28:21.727Z,69.10
2023-01-17T12:31:45.124Z,67.59
2023-01-17T12:34:55.068Z,69.43
2023-01-17T12:38:32.224Z,70.90
2023-01-17T12:41:58.712Z,70.46
2023-01-17T12:45:06.032Z,71.93
2023-01-17T12:48:16.327Z,75.52
2023-01-17T12:51:24.273Z,76.43
2023-01-17T12:54:41.857Z,75.95
2023-01-17T12:57:48.154Z,75.00
2023-01-17T13:01:16.445Z,77.21
2023-01-17T13:04:26.294Z,79.92
2023-01-17T13:07:32.033Z,79.62
2023-01-17T13:10:51.363Z,80.39
2023-01-17T13:13:58.003Z,81.17
2023-01-17T13:17:05.234Z,85.31
2023-01-17T13:20:31.906Z,85.50
2023-01-17T13:24:06.211Z,87.22
2023-01-17T13:28:00.037Z,88.59
2023-01-17T13:31:05.870Z,89.55
2023-01-17T13:34:39.152Z,91.86
2023-01-17T13:38:16.242Z,92.29
2023-01-17T13:41:52.884Z,92.40
2023-01-17T13:44:58.293Z,94.19
2023-01-17T13:48:13.035Z,94.41
2023-01-17T13:51:19.768Z,95.76
2023-01-17T13:54:31.793Z,95.84
2023-01-17T13:57:42.286Z,96.42
2023-01-17T14:00:45.209Z,96.97
2023-01-17T14:03:51.605Z,98.00
2023-01-17T14:06:56.632Z,100.00
2023-01-17T14:09:59.678Z,100.00
2023-01-17T14:13:04.381Z,99.29
2023-01-17T14:16:28.733Z,100.00
2023-01-17T14:19:37.169Z,100.00
2023-01-17T14:22:47.242Z,100.00
2023-01-17T14:25:51.538Z,100.00
2023-01-17T14:28:56.019Z,100.00
2023-01-17T14:32:02.703Z,100.00
2023-01-17T14:35:22.305Z,100.00
2023-01-17T14:38:26.657Z,100.00
2023-01-17T14:41:30.089Z,100.00
2023-01-17T14:44:34.175Z,100.00
2023-01-17T14:47:41.657Z,100.00
2023-01-17T14:50:46.650Z,100.00
2023-01-17T14:53:59.938Z,100.00
2023-01-17T14:57:26.708Z,100.00
2023-01-17T15:00:30.311Z,100.00
2023-01-17T15:03:45.953Z,100.00
2023-01-17T15:06:49.328Z,100.00
2023-01-17T15:09:51.906Z,100.00
2023-01-17T15:12:57.028Z,100.00
2023-01-17T15:16:17.187Z,100.00
2023-01-17T15:19:21.911Z,100.00
2023-01-17T15:22:25.933Z,100.00
2023-01-17T15:25:29.385Z,100.00
2023-01-17T15:28:33.804Z,100.00
2023-01-17T15:31:49.445Z,100.00
2023-01-17T15:34:53.449Z,100.00
2023-01-17T15:37:58.345Z,100.00
2023-01-17T15:41:15.176Z,100.00
2023-01-17T15:44:31.158Z,100.00
2023-01-17T15:47:39.385Z,100.00
2023-01-17T15:50:42.575Z,100.00
2023-01-17T15:53:45.219Z,100.00
2023-01-17T15:56:48.185Z,100.00
2023-01-17T16:00:01.852Z,100.00
2023-01-17T16:03:21.184Z,100.00
2023-01-17T16:06:45.713Z,100.00
2023-01-17T16:09:49.217Z,100.00
2023-01-17T16:12:54.044Z,100.00
2023-01-17T16:16:16.040Z,100.00
2023-01-17T16:19:19.182Z,100.00
2023-01-17T16:22:22.051Z,100.00
2023-01-17T16:25:25.326Z,100.00
2023-01-17T16:28:28.229Z,100.00
2023-01-17T16:31:31.503Z,100.00
2023-01-17T16:34:37.344Z,100.00
2023-01-17T16:37:40.241Z,100.00
2023-01-17T16:40:44.555Z,100.00
2023-01-17T16:43:57.851Z,100.00
2023-01-17T16:47:01.432Z,100.00
2023-01-17T16:50:05.635Z,100.00
2023-01-17T16:53:08.647Z,100.00
2023-01-17T16:56:14.781Z,100.00
2023-01-17T16:59:17.614Z,100.00
2023-01-17T17:02:20.872Z,100.00
2023-01-17T17:05:23.834Z,100.00
2023-01-17T17:08:29.528Z,100.00
2023-01-17T17:11:32.626Z,100.00
2023-01-17T17:14:35.578Z,100.00
2023-01-17T17:17:41.271Z,100.00
2023-01-17T17:20:44.973Z,100.00
2023-01-17T17:23:52.846Z,100.00
2023-01-17T17:26:56.220Z,100.00
2023-01-17T17:29:58.925Z,100.00
2023-01-17T17:33:04.733Z,100.00
2023-01-17T17:36:10.345Z,100.00
2023-01-17T17:39:17.386Z,100.00
2023-01-17T17:42:20.812Z,100.00
2023-01-17T17:45:23.871Z,100.00
2023-01-17T17:48:26.716Z,100.00
2023-01-17T17:51:39.096Z,100.00
2023-01-17T17:54:43.111Z,100.00
2023-01-17T17:57:46.294Z,100.00
2023-01-17T18:00:49.743Z,100.00
2023-01-17T18:03:56.867Z,100.00
2023-01-17T18:06:59.783Z,100.00
2023-01-17T18:10:03.835Z,100.00
2023-01-17T18:13:07.050Z,100.00
2023-01-17T18:16:19.594Z,100.00
2023-01-17T18:19:24.785Z,100.00
2023-01-17T18:22:30.173Z,100.00
2023-01-17T18:25:36.430Z,100.00
2023-01-17T18:28:40.120Z,100.00
2023-01-17T18:31:44.454Z,100.00
2023-01-17T18:34:47.860Z,100.00
2023-01-17T18:37:50.665Z,100.00
2023-01-17T18:40:53.817Z,100.00
2023-01-17T18:43:57.919Z,100.00
2023-01-17T18:47:04.811Z,100.00
2023-01-17T18:50:08.861Z,100.00
2023-01-17T18:53:12.420Z,100.00
2023-01-17T18:56:18.900Z,100.00
2023-01-17T18:59:23.419Z,100.00
2023-01-17T19:02:27.300Z,100.00
2023-01-17T19:05:30.165Z,100.00
2023-01-17T19:08:34.620Z,100.00
2023-01-17T19:11:38.279Z,100.00
2023-01-17T19:14:41.253Z,100.00
2023-01-17T19:17:44.924Z,100.00
2023-01-17T19:20:48.237Z,100.00
2023-01-17T19:23:51.779Z,100.00
2023-01-17T19:26:54.789Z,100.00
2023-01-17T19:29:58.402Z,100.00
2023-01-17T19:33:01.430Z,100.00
2023-01-17T19:36:06.547Z,100.00
2023-01-17T19:39:10.155Z,100.00
2023-01-17T19:42:15.999Z,100.00
2023-01-17T19:45:18.979Z,100.00
2023-01-17T19:48:22.594Z,100.00
2023-01-17T19:51:30.042Z,100.00
2023-01-17T19:54:33.517Z,100.00
2023-01-17T19:57:37.405Z,100.00
2023-01-17T20:00:46.540Z,100.00
2023-01-17T20:03:51.152Z,100.00
2023-01-17T20:06:54.021Z,100.00
2023-01-17T20:09:57.879Z,100.00
2023-01-17T20:13:00.726Z,100.00
2023-01-17T20:16:06.010Z,100.00
2023-01-17T20:19:09.032Z,100.00
2023-01-17T20:22:12.613Z,100.00
2023-01-17T20:25:15.941Z,100.00
2023-01-17T20:28:19.478Z,100.00
2023-01-17T20:31:24.979Z,100.00
2023-01-17T20:34:28.201Z,100.00
2023-01-17T20:37:31.379Z,100.00
2023-01-17T20:40:35.465Z,100.00
2023-01-17T20:43:38.446Z,100.00
2023-01-17T20:46:42.196Z,100.00
2023-01-17T20:49:46.346Z,100.00
2023-01-17T20:52:49.786Z,100.00
2023-01-17T20:55:56.694Z,100.00
2023-01-17T20:58:59.992Z,100.00
2023-01-17T21:02:02.936Z,100.00
2023-01-17T21:05:06.867Z,100.00
2023-01-17T21:08:09.912Z,100.00
2023-01-17T21:11:15.338Z,100.00
2023-01-17T21:14:18.443Z,100.00
2023-01-17T21:17:21.601Z,100.00
2023-01-17T21:20:27.375Z,100.00
2023-01-17T21:23:30.546Z,100.00
2023-01-17T21:26:33.459Z,100.00
2023-01-17T21:29:36.646Z,100.00
2023-01-17T21:32:39.838Z,100.00
2023-01-17T21:35:42.900Z,100.00
2023-01-17T21:38:52.211Z,100.00
2023-01-17T21:41:55.585Z,100.00
2023-01-17T21:44:58.432Z,100.00
2023-01-17T21:48:01.663Z,100.00
2023-01-17T21:51:06.396Z,100.00
2023-01-17T21:54:09.449Z,100.00
2023-01-17T21:57:32.546Z,100.00
2023-01-17T22:00:36.337Z,100.00
2023-01-17T22:03:39.375Z,100.00
2023-01-17T22:06:42.148Z,100.00
2023-01-17T22:09:45.075Z,100.00
2023-01-17T22:12:47.773Z,100.00
2023-01-17T22:15:58.805Z,100.00
2023-01-17T22:19:01.353Z,100.00
2023-01-17T22:22:04.440Z,100.00
2023-01-17T22:25:07.450Z,100.00
2023-01-17T22:28:10.514Z,100.00
2023-01-17T22:31:19.108Z,100.00
2023-01-17T22:34:22.898Z,100.00
2023-01-17T22:37:25.941Z,100.00
2023-01-17T22:40:29.021Z,100.00
2023-01-17T22:43:31.825Z,100.00
2023-01-17T22:46:37.279Z,100.00
2023-01-17T22:49:40.101Z,100.00
2023-01-17T22:52:43.250Z,100.00
2023-01-17T22:55:45.877Z,100.00
2023-01-17T22:58:49.449Z,100.00
2023-01-17T23:01:53.938Z,100.00
2023-01-17T23:04:56.971Z,100.00
2023-01-17T23:08:02.169Z,100.00
2023-01-17T23:11:33.253Z,100.00
2023-01-17T23:14:55.077Z,100.00
2023-01-17T23:18:16.875Z,100.00
2023-01-17T23:21:19.486Z,100.00
2023-01-17T23:24:22.577Z,100.00
2023-01-17T23:27:52.860Z,100.00
2023-01-17T23:31:00.933Z,100.00
2023-01-17T23:34:03.762Z,100.00
2023-01-17T23:37:06.985Z,100.00
2023-01-17T23:40:10.741Z,100.00
2023-01-17T23:43:25.883Z,100.00
2023-01-17T23:46:30.263Z,100.00
2023-01-17T23:49:33.505Z,100.00
2023-01-17T23:52:36.439Z,100.00
2023-01-17T23:55:41.489Z,100.00
2023-01-17T23:58:44.432Z,100.00
